Time;durP1;ratioP1;P1;durP2;ratioP2;P2;SDS_P1;SDS_P2;PMS_P1;PMS_P2;Temp;Humidity;BMP_temperature;BMP_pressure;BME280_temperature;BME280_humidity;BME280_pressure;Samples;Min_cycle;Max_cycle;Signal;HPM_P1;HPM_P2
2023/06/24 00:01:31;;;;;;;6.35;5.18;;;;;;;;;;5036722;28;20044;-67
2023/06/24 00:03:57;;;;;;;6.65;5.40;;;;;;;;;;5036722;28;20035;-67
2023/06/24 00:06:25;;;;;;;8.68;5.95;;;;;;;;;;5037742;28;20100;-67
2023/06/24 00:08:52;;;;;;;7.25;5.50;;;;;;;;;;5035064;28;20590;-67
2023/06/24 00:11:18;;;;;;;6.95;5.25;;;;;;;;;;5035709;28;20022;-67
2023/06/24 00:13:44;;;;;;;7.25;5.15;;;;;;;;;;5034534;28;20025;-68
2023/06/24 00:16:10;;;;;;;9.23;5.68;;;;;;;;;;5037324;28;20079;-67
2023/06/24 00:18:37;;;;;;;7.53;5.88;;;;;;;;;;5038941;28;20090;-67
2023/06/24 00:21:03;;;;;;;7.60;5.80;;;;;;;;;;5032801;28;20021;-67
2023/06/24 00:23:30;;;;;;;5.03;3.75;;;;;;;;;;5033749;28;20666;-67
2023/06/24 00:25:56;;;;;;;7.78;5.22;;;;;;;;;;5038479;28;20032;-67
2023/06/24 00:28:22;;;;;;;7.18;5.18;;;;;;;;;;5041392;28;21003;-67
2023/06/24 00:30:49;;;;;;;8.02;5.30;;;;;;;;;;5042279;28;20029;-67
2023/06/24 00:33:16;;;;;;;6.13;5.15;;;;;;;;;;5020392;28;20677;-67
2023/06/24 00:35:42;;;;;;;6.63;4.97;;;;;;;;;;5037012;28;20115;-67
2023/06/24 00:38:08;;;;;;;7.63;5.22;;;;;;;;;;5038913;28;20040;-67
2023/06/24 00:40:34;;;;;;;6.78;4.40;;;;;;;;;;5042957;28;20536;-67
2023/06/24 00:43:01;;;;;;;6.63;4.55;;;;;;;;;;5020752;28;20709;-67
2023/06/24 00:45:27;;;;;;;6.68;4.88;;;;;;;;;;5036896;28;20060;-67
2023/06/24 00:47:55;;;;;;;5.75;4.55;;;;;;;;;;5044771;28;20037;-67
2023/06/24 00:50:21;;;;;;;6.68;4.68;;;;;;;;;;5035842;28;20018;-67
2023/06/24 00:52:48;;;;;;;7.75;5.13;;;;;;;;;;5037388;28;20693;-67
2023/06/24 00:55:15;;;;;;;8.63;4.93;;;;;;;;;;5035843;28;20013;-67
2023/06/24 00:57:44;;;;;;;7.68;5.40;;;;;;;;;;5040691;28;20021;-67
2023/06/24 01:00:14;;;;;;;6.47;4.70;;;;;;;;;;5036704;28;20028;-67
2023/06/24 01:02:42;;;;;;;6.28;4.72;;;;;;;;;;5042113;28;20017;-67
2023/06/24 01:05:08;;;;;;;6.60;4.60;;;;;;;;;;5036757;28;20024;-67
2023/06/24 01:07:38;;;;;;;6.20;4.80;;;;;;;;;;5034157;28;20028;-67
2023/06/24 01:10:07;;;;;;;7.50;5.00;;;;;;;;;;5042511;28;20044;-67
2023/06/24 01:12:38;;;;;;;7.55;5.75;;;;;;;;;;5036914;28;20648;-67
2023/06/24 01:15:06;;;;;;;8.18;5.18;;;;;;;;;;5039874;28;20025;-67
2023/06/24 01:17:43;;;;;;;6.80;5.70;;;;;;;;;;5043194;28;20441;-67
2023/06/24 01:20:23;;;;;;;7.22;5.45;;;;;;;;;;5043953;28;20453;-67
2023/06/24 01:22:54;;;;;;;8.02;5.47;;;;;;;;;;5074099;22;20057;-66
2023/06/24 01:25:20;;;;;;;;;;;;;;;;;;5043542;28;20029;-66
2023/06/24 01:28:10;;;;;;;8.35;5.70;;;;;;;;;;5042560;28;19924;-66
2023/06/24 01:31:00;;;;;;;6.80;5.55;;;;;;;;;;5040753;28;20293;-66
2023/06/24 01:33:49;;;;;;;8.20;5.40;;;;;;;;;;5015118;28;20710;-66
2023/06/24 01:36:17;;;;;;;7.93;5.32;;;;;;;;;;5023614;28;20104;-66
2023/06/24 01:38:54;;;;;;;6.70;4.90;;;;;;;;;;5024619;28;20104;-66
2023/06/24 01:41:24;;;;;;;7.80;5.03;;;;;;;;;;5018782;28;20029;-66
2023/06/24 01:43:54;;;;;;;7.53;4.70;;;;;;;;;;5014051;28;20057;-66
2023/06/24 01:46:25;;;;;;;5.63;4.47;;;;;;;;;;5016042;28;20029;-66
2023/06/24 01:48:54;;;;;;;5.57;4.70;;;;;;;;;;5017900;28;20096;-66
2023/06/24 01:51:22;;;;;;;7.22;4.10;;;;;;;;;;5021298;28;20033;-66
2023/06/24 01:54:07;;;;;;;6.60;5.25;;;;;;;;;;5023050;28;20025;-66
2023/06/24 01:56:34;;;;;;;6.30;4.60;;;;;;;;;;5017217;28;20018;-65
2023/06/24 01:59:01;;;;;;;5.75;4.40;;;;;;;;;;5022237;28;20072;-65
2023/06/24 02:01:28;;;;;;;6.30;4.25;;;;;;;;;;5021370;28;20040;-65
2023/06/24 02:03:55;;;;;;;6.85;4.50;;;;;;;;;;5017620;28;20544;-66
2023/06/24 02:06:24;;;;;;;6.05;4.47;;;;;;;;;;5022558;28;20036;-66
2023/06/24 02:08:51;;;;;;;5.38;4.00;;;;;;;;;;5019537;28;20052;-65
2023/06/24 02:11:19;;;;;;;5.93;4.43;;;;;;;;;;5019831;28;20041;-66
2023/06/24 02:13:44;;;;;;;5.10;3.92;;;;;;;;;;5016267;28;20022;-66
2023/06/24 02:16:10;;;;;;;6.18;3.72;;;;;;;;;;5024069;28;20031;-66
2023/06/24 02:18:42;;;;;;;5.53;2.97;;;;;;;;;;5021730;28;20061;-66
2023/06/24 02:21:08;;;;;;;5.75;4.03;;;;;;;;;;5022651;28;20075;-65
2023/06/24 02:23:36;;;;;;;5.28;3.60;;;;;;;;;;5014743;28;20030;-66
2023/06/24 02:26:03;;;;;;;5.25;4.07;;;;;;;;;;5016334;28;20512;-65
2023/06/24 02:28:29;;;;;;;5.28;3.80;;;;;;;;;;5017266;28;20040;-66
2023/06/24 02:30:56;;;;;;;7.50;4.50;;;;;;;;;;5021057;28;20497;-65
2023/06/24 02:33:22;;;;;;;6.75;3.67;;;;;;;;;;5025854;28;20112;-66
2023/06/24 02:35:47;;;;;;;6.38;4.10;;;;;;;;;;5013163;28;21516;-66
2023/06/24 02:38:12;;;;;;;7.22;4.28;;;;;;;;;;5019897;28;20029;-65
2023/06/24 02:40:38;;;;;;;7.53;4.10;;;;;;;;;;5001813;28;20051;-66
2023/06/24 02:43:03;;;;;;;6.38;3.47;;;;;;;;;;5016521;28;20151;-66
2023/06/24 02:45:30;;;;;;;12.25;4.28;;;;;;;;;;5013231;28;20034;-66
2023/06/24 02:47:56;;;;;;;7.80;3.53;;;;;;;;;;5017371;28;20036;-66
2023/06/24 02:50:23;;;;;;;11.25;4.53;;;;;;;;;;5015827;28;20026;-66
2023/06/24 02:52:50;;;;;;;5.32;3.70;;;;;;;;;;5015412;28;20042;-66
2023/06/24 02:55:15;;;;;;;5.05;3.95;;;;;;;;;;5018523;28;20167;-66
2023/06/24 02:57:41;;;;;;;5.68;4.30;;;;;;;;;;5004529;28;20488;-66
2023/06/24 03:00:14;;;;;;;7.53;3.85;;;;;;;;;;5014482;28;20052;-65
2023/06/24 03:02:42;;;;;;;7.15;3.97;;;;;;;;;;5016075;28;20017;-66
2023/06/24 03:05:09;;;;;;;6.53;4.05;;;;;;;;;;5013933;28;20057;-66
2023/06/24 03:07:37;;;;;;;6.55;4.68;;;;;;;;;;5024928;28;20025;-66
2023/06/24 03:10:04;;;;;;;7.10;4.57;;;;;;;;;;5021711;28;20024;-66
2023/06/24 03:12:30;;;;;;;7.00;4.45;;;;;;;;;;5017661;28;20025;-66
2023/06/24 03:14:55;;;;;;;6.78;4.70;;;;;;;;;;5024427;28;20026;-66
2023/06/24 03:17:21;;;;;;;8.02;4.65;;;;;;;;;;5020544;28;20025;-66
2023/06/24 03:19:46;;;;;;;7.38;4.70;;;;;;;;;;5016232;28;20017;-66
2023/06/24 03:22:11;;;;;;;6.15;4.72;;;;;;;;;;5019206;28;20025;-66
2023/06/24 03:24:37;;;;;;;5.82;4.10;;;;;;;;;;5016100;28;20032;-66
2023/06/24 03:27:03;;;;;;;7.20;4.47;;;;;;;;;;5018008;28;20057;-66
2023/06/24 03:29:28;;;;;;;6.43;4.20;;;;;;;;;;5014868;28;20018;-66
2023/06/24 03:31:54;;;;;;;5.15;3.80;;;;;;;;;;5022099;28;20397;-65
2023/06/24 03:34:19;;;;;;;5.82;4.28;;;;;;;;;;5010744;28;20045;-66
2023/06/24 03:36:44;;;;;;;5.35;4.43;;;;;;;;;;5015220;28;20022;-66
2023/06/24 03:39:10;;;;;;;6.90;4.50;;;;;;;;;;5015162;28;20357;-66
2023/06/24 03:41:35;;;;;;;6.03;4.40;;;;;;;;;;5019325;28;20103;-66
2023/06/24 03:44:01;;;;;;;5.95;4.40;;;;;;;;;;5012150;28;20028;-66
2023/06/24 03:46:27;;;;;;;5.35;4.10;;;;;;;;;;5020310;28;20078;-66
2023/06/24 03:48:52;;;;;;;7.00;4.22;;;;;;;;;;5019354;28;20022;-66
2023/06/24 03:51:17;;;;;;;6.20;4.05;;;;;;;;;;5013405;28;20038;-66
2023/06/24 03:53:43;;;;;;;6.10;4.18;;;;;;;;;;5015959;28;20040;-66
2023/06/24 03:56:08;;;;;;;6.80;4.60;;;;;;;;;;5021293;28;20049;-66
2023/06/24 03:58:33;;;;;;;5.43;3.53;;;;;;;;;;5024291;28;20025;-66
2023/06/24 04:01:00;;;;;;;5.80;3.65;;;;;;;;;;5016788;28;20039;-66
2023/06/24 04:03:25;;;;;;;7.32;4.05;;;;;;;;;;5019849;28;20018;-66
2023/06/24 04:05:54;;;;;;;5.50;4.22;;;;;;;;;;5024516;28;20079;-66
2023/06/24 04:08:19;;;;;;;6.50;4.47;;;;;;;;;;5020672;28;20424;-66
2023/06/24 04:10:44;;;;;;;6.32;4.68;;;;;;;;;;5026362;28;20030;-66
2023/06/24 04:13:10;;;;;;;4.60;3.72;;;;;;;;;;5021456;28;20084;-66
2023/06/24 04:15:35;;;;;;;5.32;3.70;;;;;;;;;;5021881;28;20033;-66
2023/06/24 04:18:01;;;;;;;6.40;4.32;;;;;;;;;;5019075;28;20036;-66
2023/06/24 04:20:26;;;;;;;8.02;4.43;;;;;;;;;;5006433;28;20040;-66
2023/06/24 04:22:51;;;;;;;6.25;4.35;;;;;;;;;;5018762;28;20030;-66
2023/06/24 04:25:17;;;;;;;7.55;4.90;;;;;;;;;;5026048;28;20432;-66
2023/06/24 04:27:42;;;;;;;7.38;4.60;;;;;;;;;;5023138;28;20029;-66
2023/06/24 04:30:08;;;;;;;6.03;4.00;;;;;;;;;;5020939;28;20025;-66
2023/06/24 04:32:33;;;;;;;6.10;4.05;;;;;;;;;;5018558;28;20022;-66
2023/06/24 04:35:02;;;;;;;6.15;4.10;;;;;;;;;;5024508;28;20520;-66
2023/06/24 04:37:28;;;;;;;5.95;3.70;;;;;;;;;;5021134;28;20048;-66
2023/06/24 04:39:53;;;;;;;7.07;3.40;;;;;;;;;;5027266;28;20049;-66
2023/06/24 04:42:18;;;;;;;6.00;3.13;;;;;;;;;;5019878;28;20120;-66
2023/06/24 04:44:44;;;;;;;7.82;3.38;;;;;;;;;;5019035;28;20025;-66
2023/06/24 04:47:09;;;;;;;5.30;3.50;;;;;;;;;;5020515;28;20053;-66
2023/06/24 04:49:35;;;;;;;3.88;3.10;;;;;;;;;;5020449;28;20022;-66
2023/06/24 04:52:01;;;;;;;3.75;2.40;;;;;;;;;;5021255;28;20026;-66
2023/06/24 04:54:27;;;;;;;4.78;2.92;;;;;;;;;;5024517;28;20044;-66
2023/06/24 04:56:55;;;;;;;6.45;3.63;;;;;;;;;;5022127;28;20017;-66
2023/06/24 04:59:21;;;;;;;4.57;2.90;;;;;;;;;;5020846;28;20017;-66
2023/06/24 05:01:46;;;;;;;6.53;3.40;;;;;;;;;;5020971;28;20742;-66
2023/06/24 05:04:11;;;;;;;6.00;3.60;;;;;;;;;;5022278;28;20017;-66
2023/06/24 05:06:37;;;;;;;7.50;4.07;;;;;;;;;;5023326;28;20045;-66
2023/06/24 05:09:02;;;;;;;7.07;4.07;;;;;;;;;;5024998;28;20440;-66
2023/06/24 05:11:28;;;;;;;5.75;3.63;;;;;;;;;;5012526;28;20044;-66
2023/06/24 05:13:53;;;;;;;6.43;3.80;;;;;;;;;;5022077;28;20036;-65
2023/06/24 05:16:18;;;;;;;6.93;3.83;;;;;;;;;;5013501;28;20127;-66
2023/06/24 05:18:45;;;;;;;6.75;4.15;;;;;;;;;;5006789;28;20040;-65
2023/06/24 05:21:11;;;;;;;3.63;2.53;;;;;;;;;;5020778;28;20381;-66
2023/06/24 05:23:36;;;;;;;6.75;4.28;;;;;;;;;;5019478;28;20029;-66
2023/06/24 05:26:01;;;;;;;6.55;4.22;;;;;;;;;;5021430;28;20025;-66
2023/06/24 05:28:27;;;;;;;7.47;4.80;;;;;;;;;;5020577;28;20032;-66
2023/06/24 05:30:52;;;;;;;7.03;4.10;;;;;;;;;;5022282;28;20030;-65
2023/06/24 05:33:17;;;;;;;7.13;4.32;;;;;;;;;;5017006;28;20104;-72
2023/06/24 05:35:43;;;;;;;7.15;4.07;;;;;;;;;;5015614;28;20375;-66
2023/06/24 05:38:09;;;;;;;7.63;4.57;;;;;;;;;;5023708;28;20022;-66
2023/06/24 05:40:34;;;;;;;7.38;4.32;;;;;;;;;;5022635;28;20018;-66
2023/06/24 05:43:00;;;;;;;3.65;2.90;;;;;;;;;;5017546;28;20041;-66
2023/06/24 05:45:26;;;;;;;8.00;4.57;;;;;;;;;;5020563;28;20051;-66
2023/06/24 05:47:51;;;;;;;7.43;3.47;;;;;;;;;;5017715;28;20084;-65
2023/06/24 05:50:17;;;;;;;6.10;4.63;;;;;;;;;;5021640;28;20064;-66
2023/06/24 05:52:42;;;;;;;6.78;4.55;;;;;;;;;;5018885;28;20017;-66
2023/06/24 05:55:08;;;;;;;8.48;5.05;;;;;;;;;;5020692;28;20029;-66
2023/06/24 05:57:33;;;;;;;6.47;4.75;;;;;;;;;;5018976;28;20029;-66
2023/06/24 05:59:59;;;;;;;5.85;4.07;;;;;;;;;;5015980;28;20642;-65
2023/06/24 06:02:24;;;;;;;6.78;4.50;;;;;;;;;;5016654;28;20025;-65
2023/06/24 06:04:50;;;;;;;4.22;3.55;;;;;;;;;;5018972;28;20040;-66
2023/06/24 06:07:16;;;;;;;4.85;3.00;;;;;;;;;;5021447;28;20116;-66
2023/06/24 06:09:41;;;;;;;7.72;5.32;;;;;;;;;;5021343;28;20389;-66
2023/06/24 06:12:07;;;;;;;7.13;4.50;;;;;;;;;;5020739;28;20834;-66
2023/06/24 06:14:32;;;;;;;5.95;4.85;;;;;;;;;;5021340;28;20032;-66
2023/06/24 06:16:58;;;;;;;5.80;4.50;;;;;;;;;;5014549;28;20037;-66
2023/06/24 06:19:23;;;;;;;6.05;4.38;;;;;;;;;;5020155;28;20981;-66
2023/06/24 06:21:49;;;;;;;6.38;4.30;;;;;;;;;;5020440;28;20029;-67
2023/06/24 06:24:14;;;;;;;9.02;5.40;;;;;;;;;;5017279;28;20063;-66
2023/06/24 06:26:44;;;;;;;6.75;4.43;;;;;;;;;;5018110;28;20102;-66
2023/06/24 06:29:10;;;;;;;6.53;4.80;;;;;;;;;;5018049;28;20022;-66
2023/06/24 06:31:36;;;;;;;5.22;4.28;;;;;;;;;;5019110;28;20030;-66
2023/06/24 06:34:01;;;;;;;8.02;4.45;;;;;;;;;;5017538;28;20040;-66
2023/06/24 06:36:27;;;;;;;6.13;3.95;;;;;;;;;;5018316;28;20025;-66
2023/06/24 06:38:52;;;;;;;5.35;3.55;;;;;;;;;;5017412;28;20041;-66
2023/06/24 06:41:24;;;;;;;5.65;4.30;;;;;;;;;;5013141;28;20499;-66
2023/06/24 06:43:52;;;;;;;3.53;2.70;;;;;;;;;;5012181;28;20164;-66
2023/06/24 06:46:17;;;;;;;6.13;3.30;;;;;;;;;;5014124;28;20520;-66
2023/06/24 06:48:42;;;;;;;8.57;3.70;;;;;;;;;;5019359;28;20061;-66
2023/06/24 06:51:08;;;;;;;6.65;3.50;;;;;;;;;;5020258;28;20126;-66
2023/06/24 06:53:33;;;;;;;4.05;2.70;;;;;;;;;;5017696;28;20040;-72
2023/06/24 06:55:58;;;;;;;5.07;2.80;;;;;;;;;;5020879;28;20024;-66
2023/06/24 06:58:24;;;;;;;5.53;2.75;;;;;;;;;;5019427;28;20498;-70
2023/06/24 07:00:54;;;;;;;6.88;3.08;;;;;;;;;;5017839;28;20025;-66
2023/06/24 07:03:19;;;;;;;5.43;2.92;;;;;;;;;;5014171;28;20153;-66
2023/06/24 07:05:46;;;;;;;5.63;2.70;;;;;;;;;;5018183;28;20529;-66
2023/06/24 07:08:11;;;;;;;3.25;2.20;;;;;;;;;;5014951;28;20393;-66
2023/06/24 07:10:37;;;;;;;4.35;2.53;;;;;;;;;;5018480;28;20022;-66
2023/06/24 07:13:02;;;;;;;4.20;2.75;;;;;;;;;;5013282;28;20533;-66
2023/06/24 07:15:27;;;;;;;3.65;2.63;;;;;;;;;;5014726;28;20028;-66
2023/06/24 07:17:53;;;;;;;3.13;2.33;;;;;;;;;;5012747;28;20037;-66
2023/06/24 07:20:20;;;;;;;2.95;2.10;;;;;;;;;;5019893;28;20032;-66
2023/06/24 07:22:45;;;;;;;4.20;2.45;;;;;;;;;;5015585;28;20418;-66
2023/06/24 07:25:12;;;;;;;3.08;2.50;;;;;;;;;;5015468;28;20029;-67
2023/06/24 07:27:37;;;;;;;4.40;2.60;;;;;;;;;;5011406;28;20029;-67
2023/06/24 07:30:04;;;;;;;3.97;2.42;;;;;;;;;;5017039;28;20026;-67
2023/06/24 07:32:30;;;;;;;4.05;2.58;;;;;;;;;;5020473;28;20489;-66
2023/06/24 07:34:55;;;;;;;4.65;2.63;;;;;;;;;;5019708;28;20034;-67
2023/06/24 07:37:21;;;;;;;3.33;2.30;;;;;;;;;;5015681;28;20021;-65
2023/06/24 07:39:46;;;;;;;3.88;2.55;;;;;;;;;;5019798;28;20112;-65
2023/06/24 07:42:11;;;;;;;2.25;1.25;;;;;;;;;;5022982;28;20044;-65
2023/06/24 07:44:39;;;;;;;3.17;2.22;;;;;;;;;;5018721;28;20133;-65
2023/06/24 07:47:06;;;;;;;5.05;2.50;;;;;;;;;;5016693;28;20513;-65
2023/06/24 07:49:31;;;;;;;4.40;2.72;;;;;;;;;;5022711;28;20033;-65
2023/06/24 07:51:57;;;;;;;4.30;2.75;;;;;;;;;;5016015;28;20544;-65
2023/06/24 07:54:22;;;;;;;3.65;2.22;;;;;;;;;;5015595;28;20068;-65
2023/06/24 07:56:47;;;;;;;8.50;2.90;;;;;;;;;;5018501;28;20014;-65
2023/06/24 07:59:13;;;;;;;5.55;3.00;;;;;;;;;;5021500;28;20052;-65
2023/06/24 08:01:38;;;;;;;4.93;2.58;;;;;;;;;;5017032;28;20381;-65
2023/06/24 08:04:04;;;;;;;4.82;2.25;;;;;;;;;;5021154;28;20030;-67
2023/06/24 08:06:29;;;;;;;3.58;2.22;;;;;;;;;;5022456;28;20473;-65
2023/06/24 08:08:54;;;;;;;3.03;2.25;;;;;;;;;;5018503;28;20242;-65
2023/06/24 08:11:21;;;;;;;4.70;2.33;;;;;;;;;;5022110;28;20650;-65
2023/06/24 08:13:47;;;;;;;4.60;2.33;;;;;;;;;;5017446;28;20033;-65
2023/06/24 08:16:17;;;;;;;4.13;2.70;;;;;;;;;;5012886;28;20026;-65
2023/06/24 08:18:43;;;;;;;3.60;2.35;;;;;;;;;;5019828;28;20109;-65
2023/06/24 08:21:09;;;;;;;4.68;2.55;;;;;;;;;;5017946;28;20112;-65
2023/06/24 08:23:34;;;;;;;4.53;2.65;;;;;;;;;;5018865;28;20777;-65
2023/06/24 08:25:59;;;;;;;4.20;2.45;;;;;;;;;;5026642;28;20037;-65
2023/06/24 08:28:25;;;;;;;4.57;2.38;;;;;;;;;;5016274;28;20583;-65
2023/06/24 08:30:50;;;;;;;3.63;2.45;;;;;;;;;;5016082;28;20093;-65
2023/06/24 08:33:15;;;;;;;4.93;2.80;;;;;;;;;;5019525;28;20014;-65
2023/06/24 08:35:41;;;;;;;3.78;2.17;;;;;;;;;;5022911;28;20386;-65
2023/06/24 08:38:06;;;;;;;4.13;2.20;;;;;;;;;;5021582;28;20025;-65
2023/06/24 08:40:32;;;;;;;3.47;2.22;;;;;;;;;;5021135;28;20027;-65
2023/06/24 08:42:58;;;;;;;5.00;2.40;;;;;;;;;;5021188;28;20038;-65
2023/06/24 08:45:23;;;;;;;3.78;2.28;;;;;;;;;;5014876;28;20021;-65
2023/06/24 08:47:50;;;;;;;4.30;2.50;;;;;;;;;;5021032;28;20025;-66
2023/06/24 08:50:18;;;;;;;3.42;2.72;;;;;;;;;;5018875;28;20493;-65
2023/06/24 08:52:48;;;;;;;3.95;2.38;;;;;;;;;;5015587;28;20097;-66
2023/06/24 08:55:16;;;;;;;3.17;2.33;;;;;;;;;;5018813;28;20044;-65
2023/06/24 08:57:42;;;;;;;4.13;2.60;;;;;;;;;;5017406;28;20073;-66
2023/06/24 09:00:11;;;;;;;3.55;2.47;;;;;;;;;;5020301;28;20112;-65
2023/06/24 09:02:38;;;;;;;4.70;2.60;;;;;;;;;;5015975;28;20521;-65
2023/06/24 09:05:07;;;;;;;3.70;2.38;;;;;;;;;;5019056;28;20045;-65
2023/06/24 09:07:33;;;;;;;4.40;2.80;;;;;;;;;;5018784;28;20097;-66
2023/06/24 09:10:00;;;;;;;3.60;2.53;;;;;;;;;;5016621;28;20534;-65
2023/06/24 09:12:26;;;;;;;4.32;2.47;;;;;;;;;;5016977;28;20036;-66
2023/06/24 09:14:52;;;;;;;5.43;2.67;;;;;;;;;;5016658;28;20096;-66
2023/06/24 09:17:21;;;;;;;3.22;2.28;;;;;;;;;;5018303;28;20025;-66
2023/06/24 09:19:48;;;;;;;6.65;3.25;;;;;;;;;;5018244;28;20030;-65
2023/06/24 09:22:17;;;;;;;2.95;2.42;;;;;;;;;;5016157;28;20112;-65
2023/06/24 09:24:46;;;;;;;3.10;2.40;;;;;;;;;;5018838;28;20121;-65
2023/06/24 09:27:17;;;;;;;3.33;2.47;;;;;;;;;;5018161;28;20033;-65
2023/06/24 09:29:43;;;;;;;5.63;2.97;;;;;;;;;;5017247;28;20409;-66
2023/06/24 09:32:09;;;;;;;4.57;2.70;;;;;;;;;;5016991;28;20029;-66
2023/06/24 09:34:35;;;;;;;4.82;3.20;;;;;;;;;;5018081;28;20510;-66
2023/06/24 09:37:01;;;;;;;5.10;2.80;;;;;;;;;;5015334;28;20559;-66
2023/06/24 09:39:30;;;;;;;5.70;3.00;;;;;;;;;;5015932;28;20175;-66
2023/06/24 09:42:00;;;;;;;3.95;2.75;;;;;;;;;;5018098;28;20014;-65
2023/06/24 09:44:27;;;;;;;3.53;2.72;;;;;;;;;;5017760;28;20036;-66
2023/06/24 09:46:53;;;;;;;4.65;2.90;;;;;;;;;;5018344;28;20152;-66
2023/06/24 09:49:19;;;;;;;4.13;2.90;;;;;;;;;;5016571;28;20462;-66
2023/06/24 09:51:47;;;;;;;3.58;2.67;;;;;;;;;;5015350;28;20029;-65
2023/06/24 09:54:14;;;;;;;4.25;3.05;;;;;;;;;;5016216;28;20036;-66
2023/06/24 09:56:44;;;;;;;4.70;2.75;;;;;;;;;;5015234;28;20075;-66
2023/06/24 09:59:12;;;;;;;3.67;2.60;;;;;;;;;;5020375;28;20025;-66
2023/06/24 10:01:39;;;;;;;4.38;2.70;;;;;;;;;;5019575;28;20041;-66
2023/06/24 10:04:06;;;;;;;7.32;3.03;;;;;;;;;;5015099;28;20071;-66
2023/06/24 10:06:33;;;;;;;5.00;3.38;;;;;;;;;;5012489;28;20022;-66
2023/06/24 10:08:59;;;;;;;3.47;2.45;;;;;;;;;;5015430;28;20030;-65
2023/06/24 10:11:24;;;;;;;5.70;3.10;;;;;;;;;;5017416;28;20059;-65
2023/06/24 10:13:50;;;;;;;4.95;2.80;;;;;;;;;;5013651;28;20029;-66
2023/06/24 10:16:16;;;;;;;3.70;2.63;;;;;;;;;;5015743;28;20025;-66
2023/06/24 10:18:44;;;;;;;4.80;2.30;;;;;;;;;;5015605;28;20044;-66
2023/06/24 10:21:09;;;;;;;3.92;3.30;;;;;;;;;;5013905;28;20033;-65
2023/06/24 10:23:53;;;;;;;4.22;2.63;;;;;;;;;;5017951;28;20075;-65
2023/06/24 10:26:29;;;;;;;3.42;2.58;;;;;;;;;;5014572;28;20029;-65
2023/06/24 10:29:08;;;;;;;4.75;2.55;;;;;;;;;;5002776;28;20045;-65
2023/06/24 10:31:40;;;;;;;3.55;2.30;;;;;;;;;;5023744;28;20041;-65
2023/06/24 10:34:29;;;;;;;3.90;2.47;;;;;;;;;;5018911;28;20108;-65
2023/06/24 10:36:55;;;;;;;4.07;2.55;;;;;;;;;;5016012;28;20099;-65
2023/06/24 10:39:36;;;;;;;4.00;2.47;;;;;;;;;;5018160;28;20025;-65
2023/06/24 10:42:23;;;;;;;3.78;2.25;;;;;;;;;;5015978;28;20043;-64
2023/06/24 10:44:49;;;;;;;3.80;2.40;;;;;;;;;;5016210;28;20404;-65
2023/06/24 10:47:15;;;;;;;5.18;2.45;;;;;;;;;;5013335;28;20112;-65
2023/06/24 10:49:40;;;;;;;3.20;2.00;;;;;;;;;;5018919;28;20231;-65
2023/06/24 10:52:09;;;;;;;2.60;2.10;;;;;;;;;;5013840;28;20029;-65
2023/06/24 10:54:39;;;;;;;3.45;2.50;;;;;;;;;;5016730;28;20933;-65
2023/06/24 10:57:04;;;;;;;4.35;2.10;;;;;;;;;;5013888;28;20118;-65
2023/06/24 10:59:51;;;;;;;3.67;2.50;;;;;;;;;;5017807;28;20602;-64
2023/06/24 11:02:18;;;;;;;5.85;2.65;;;;;;;;;;5016924;28;20901;-65
2023/06/24 11:04:55;;;;;;;4.20;2.25;;;;;;;;;;5017086;28;20021;-65
2023/06/24 11:07:22;;;;;;;3.95;2.10;;;;;;;;;;4997786;28;20017;-65
2023/06/24 11:09:52;;;;;;;3.08;2.38;;;;;;;;;;5017624;28;20033;-64
2023/06/24 11:12:19;;;;;;;3.55;2.30;;;;;;;;;;5014950;28;20049;-64
2023/06/24 11:14:44;;;;;;;3.58;2.10;;;;;;;;;;5015402;28;20120;-64
2023/06/24 11:17:10;;;;;;;3.50;2.15;;;;;;;;;;5016871;28;20955;-65
2023/06/24 11:19:39;;;;;;;4.05;2.33;;;;;;;;;;5016617;28;20021;-65
2023/06/24 11:22:06;;;;;;;3.03;2.05;;;;;;;;;;5015855;28;20029;-65
2023/06/24 11:24:32;;;;;;;4.25;2.45;;;;;;;;;;5013820;28;20108;-65
2023/06/24 11:26:59;;;;;;;4.28;2.30;;;;;;;;;;5013647;28;20021;-64
2023/06/24 11:29:29;;;;;;;3.00;2.25;;;;;;;;;;5017300;28;20040;-65
2023/06/24 11:31:55;;;;;;;3.30;2.05;;;;;;;;;;5017461;28;20026;-64
2023/06/24 11:34:21;;;;;;;3.53;2.30;;;;;;;;;;5016901;28;20428;-65
2023/06/24 11:36:48;;;;;;;3.72;2.58;;;;;;;;;;5017603;28;20397;-65
2023/06/24 11:39:27;;;;;;;3.20;2.08;;;;;;;;;;5014812;28;20494;-65
2023/06/24 11:41:57;;;;;;;3.38;2.30;;;;;;;;;;5021010;28;20024;-64
2023/06/24 11:44:25;;;;;;;2.72;2.00;;;;;;;;;;5004178;28;20037;-65
2023/06/24 11:46:52;;;;;;;3.38;2.20;;;;;;;;;;5016320;28;20037;-65
2023/06/24 11:49:18;;;;;;;3.42;2.67;;;;;;;;;;4999193;28;20034;-64
2023/06/24 11:51:52;;;;;;;2.90;1.92;;;;;;;;;;5015221;28;20380;-66
2023/06/24 11:54:20;;;;;;;3.67;1.98;;;;;;;;;;5017311;28;20034;-65
2023/06/24 11:56:51;;;;;;;3.22;2.15;;;;;;;;;;5017054;28;20052;-65
2023/06/24 11:59:22;;;;;;;3.63;2.30;;;;;;;;;;5016149;28;20040;-65
2023/06/24 12:01:55;;;;;;;3.92;2.00;;;;;;;;;;5015817;28;20553;-65
2023/06/24 12:04:26;;;;;;;2.92;1.98;;;;;;;;;;5013248;28;20045;-65
2023/06/24 12:06:52;;;;;;;2.72;1.55;;;;;;;;;;5014296;28;20029;-65
2023/06/24 12:09:17;;;;;;;2.63;1.73;;;;;;;;;;5014939;28;20104;-65
2023/06/24 12:11:43;;;;;;;2.50;1.95;;;;;;;;;;5016979;28;20013;-66
2023/06/24 12:14:08;;;;;;;3.13;2.17;;;;;;;;;;5016092;28;20037;-65
2023/06/24 12:16:34;;;;;;;3.72;2.20;;;;;;;;;;5016891;28;20025;-65
2023/06/24 12:18:59;;;;;;;5.03;2.63;;;;;;;;;;4996728;28;20034;-65
2023/06/24 12:21:24;;;;;;;3.20;1.95;;;;;;;;;;4996523;28;20064;-65
2023/06/24 12:23:50;;;;;;;3.53;2.28;;;;;;;;;;5013917;28;20029;-65
2023/06/24 12:26:17;;;;;;;2.78;1.80;;;;;;;;;;5017403;28;20080;-65
2023/06/24 12:28:43;;;;;;;3.17;1.98;;;;;;;;;;5020489;28;20033;-64
2023/06/24 12:31:08;;;;;;;5.97;2.10;;;;;;;;;;5018042;28;20440;-65
2023/06/24 12:33:34;;;;;;;3.63;2.30;;;;;;;;;;5015547;28;20029;-65
2023/06/24 12:36:00;;;;;;;2.85;2.25;;;;;;;;;;5017293;28;20022;-65
2023/06/24 12:38:25;;;;;;;4.07;2.35;;;;;;;;;;5000307;28;20017;-65
2023/06/24 12:40:50;;;;;;;3.45;2.38;;;;;;;;;;5017103;28;20060;-65
2023/06/24 12:43:16;;;;;;;4.47;2.38;;;;;;;;;;5018462;28;20014;-65
2023/06/24 12:45:43;;;;;;;4.55;2.30;;;;;;;;;;5016775;28;20038;-65
2023/06/24 12:48:09;;;;;;;3.95;1.90;;;;;;;;;;5021386;28;20039;-65
2023/06/24 12:50:35;;;;;;;3.38;2.20;;;;;;;;;;5017039;28;20030;-65
2023/06/24 12:53:01;;;;;;;4.05;2.60;;;;;;;;;;5002407;28;20025;-65
2023/06/24 12:55:27;;;;;;;3.30;2.30;;;;;;;;;;5017434;28;20622;-65
2023/06/24 12:57:52;;;;;;;3.45;1.95;;;;;;;;;;5015862;28;20046;-65
2023/06/24 13:00:20;;;;;;;2.97;2.15;;;;;;;;;;5018102;28;20037;-65
2023/06/24 13:02:45;;;;;;;3.47;2.15;;;;;;;;;;5015828;28;20010;-65
2023/06/24 13:05:11;;;;;;;3.40;2.10;;;;;;;;;;5018570;28;20079;-65
2023/06/24 13:07:37;;;;;;;4.70;2.90;;;;;;;;;;5017358;28;20030;-66
2023/06/24 13:10:05;;;;;;;4.47;2.88;;;;;;;;;;5022280;28;20049;-67
2023/06/24 13:12:31;;;;;;;5.20;2.72;;;;;;;;;;5017656;28;20088;-65
2023/06/24 13:14:58;;;;;;;5.18;2.80;;;;;;;;;;5016836;28;20473;-65
2023/06/24 13:17:24;;;;;;;3.20;2.30;;;;;;;;;;5012954;28;20057;-65
2023/06/24 13:19:50;;;;;;;3.83;2.22;;;;;;;;;;5014397;28;20076;-65
2023/06/24 13:22:15;;;;;;;4.55;3.17;;;;;;;;;;5014362;28;20021;-65
2023/06/24 13:24:41;;;;;;;3.58;2.55;;;;;;;;;;5017411;28;20072;-66
2023/06/24 13:27:07;;;;;;;3.25;2.53;;;;;;;;;;5015311;28;20026;-65
2023/06/24 13:29:32;;;;;;;4.22;2.60;;;;;;;;;;5016438;28;20458;-65
2023/06/24 13:31:57;;;;;;;5.53;3.25;;;;;;;;;;5020774;28;20156;-66
2023/06/24 13:34:23;;;;;;;4.03;2.42;;;;;;;;;;5015858;28;20025;-66
2023/06/24 13:36:48;;;;;;;4.15;2.70;;;;;;;;;;5014983;28;20025;-66
2023/06/24 13:39:16;;;;;;;4.60;2.67;;;;;;;;;;5016270;28;20033;-65
2023/06/24 13:41:44;;;;;;;5.05;2.90;;;;;;;;;;5016462;28;20029;-65
2023/06/24 13:44:09;;;;;;;4.18;2.80;;;;;;;;;;5014454;28;20029;-66
2023/06/24 13:46:35;;;;;;;4.38;2.90;;;;;;;;;;5016008;28;20036;-66
2023/06/24 13:49:01;;;;;;;3.03;2.58;;;;;;;;;;5016334;28;20033;-66
2023/06/24 13:51:27;;;;;;;4.07;2.70;;;;;;;;;;5021428;28;20104;-66
2023/06/24 13:53:56;;;;;;;4.75;2.70;;;;;;;;;;5014021;28;20074;-65
2023/06/24 13:56:23;;;;;;;3.67;2.20;;;;;;;;;;5015670;28;20025;-65
2023/06/24 13:58:50;;;;;;;3.35;2.25;;;;;;;;;;5015272;28;20561;-65
2023/06/24 14:01:15;;;;;;;4.43;3.17;;;;;;;;;;5018432;28;20028;-65
2023/06/24 14:03:41;;;;;;;5.53;2.92;;;;;;;;;;5017999;28;20018;-66
2023/06/24 14:06:06;;;;;;;3.30;2.30;;;;;;;;;;5017227;28;20107;-66
2023/06/24 14:08:32;;;;;;;3.63;2.60;;;;;;;;;;5022223;28;20021;-65
2023/06/24 14:10:58;;;;;;;4.63;2.70;;;;;;;;;;5016833;28;20044;-66
2023/06/24 14:13:26;;;;;;;3.65;2.92;;;;;;;;;;5018311;28;20057;-66
2023/06/24 14:15:52;;;;;;;3.50;2.67;;;;;;;;;;5016835;28;20033;-65
2023/06/24 14:18:17;;;;;;;3.80;2.75;;;;;;;;;;5018587;28;20036;-66
2023/06/24 14:20:45;;;;;;;3.55;2.78;;;;;;;;;;5016681;28;20024;-66
2023/06/24 14:23:11;;;;;;;4.05;2.92;;;;;;;;;;5019556;28;20041;-66
2023/06/24 14:25:37;;;;;;;4.50;2.45;;;;;;;;;;5017780;28;20025;-66
2023/06/24 14:28:03;;;;;;;3.72;2.78;;;;;;;;;;5015630;28;20025;-66
2023/06/24 14:30:29;;;;;;;3.75;3.05;;;;;;;;;;5016471;28;20591;-65
2023/06/24 14:32:54;;;;;;;3.90;2.72;;;;;;;;;;5015690;28;20025;-66
2023/06/24 14:35:21;;;;;;;4.65;3.13;;;;;;;;;;5017383;28;20050;-66
2023/06/24 14:37:46;;;;;;;3.70;2.78;;;;;;;;;;5007293;28;20084;-66
2023/06/24 14:40:12;;;;;;;4.05;2.50;;;;;;;;;;5019432;28;20103;-66
2023/06/24 14:42:37;;;;;;;4.45;3.28;;;;;;;;;;5014582;28;20493;-66